Time,TemperatureF,DewpointF,PressureIn,WindDirection,WindDirectionDegrees,WindSpeedMPH,WindSpeedGustMPH,Humidity,HourlyPrecipIn,Conditions,Clouds,dailyrainin,SoftwareType,DateUTC
2013-01-08 00:00:00,32.1,26.9,30.20,SSW,194,2.3,2.3,81,0.00,CLR,,0.00,WeatherDisplay:10.37,2013-01-08 05:00:00,
2013-01-08 00:01:00,32.1,26.9,30.20,WSW,253,2.3,2.3,81,0.00,CLR,,0.00,WeatherDisplay:10.37,2013-01-08 05:01:00,
2013-01-08 00:06:00,32.1,26.6,30.20,South,177,2.0,2.0,80,0.00,CLR,,0.00,WeatherDisplay:10.37,2013-01-08 05:06:00,
2013-01-08 10:26:00,33.7,22.4,30.30,SW,226,3.5,0.0,63,0.00,CLR,,0.00,WeatherDisplay:10.37,2013-01-08 15:26:00,
2013-01-08 10:31:00,34.3,22.6,30.30,SW,228,5.8,5.8,62,0.00,CLR,,0.00,WeatherDisplay:10.37,2013-01-08 15:31:00,
2013-01-08 10:36:00,34.8,23.1,30.29,SSW,212,4.0,4.0,62,0.00,CLR,,0.00,WeatherDisplay:10.37,2013-01-08 15:36:00,
2013-01-08 10:41:00,34.9,22.8,30.29,SW,219,4.6,4.6,61,0.00,CLR,,0.00,WeatherDisplay:10.37,2013-01-08 15:41:00,
2013-01-08 10:46:00,34.9,22.8,30.29,WSW,242,10.4,10.4,61,0.00,CLR,,0.00,WeatherDisplay:10.37,2013-01-08 15:46:00,
2013-01-08 10:51:00,35.0,23.3,30.29,SSW,211,4.6,4.6,62,0.00,CLR,,0.00,WeatherDisplay:10.37,2013-01-08 15:51:00,
2013-01-08 10:56:00,35.1,23.4,30.29,SW,219,5.8,5.8,62,0.00,CLR,,0.00,WeatherDisplay:10.37,2013-01-08 15:56:00,
2013-01-08 11:01:00,35.3,23.2,30.29,SW,219,6.9,6.9,61,0.00,CLR,,0.00,WeatherDisplay:10.37,2013-01-08 16:01:00,
2013-01-08 11:06:00,35.3,23.6,30.30,SW,226,5.8,5.8,62,0.00,CLR,,0.00,WeatherDisplay:10.37,2013-01-08 16:06:00,
2013-01-08 11:11:00,35.5,23.8,30.30,SSW,193,3.5,3.5,62,0.00,CLR,,0.00,WeatherDisplay:10.37,2013-01-08 16:11:00,
2013-01-08 11:16:00,35.6,23.9,30.30,SW,215,4.6,4.6,62,0.00,CLR,,0.00,WeatherDisplay:10.37,2013-01-08 16:16:00,
2013-01-08 11:21:00,35.7,24.3,30.30,SW,226,8.1,8.1,63,0.00,CLR,,0.00,WeatherDisplay:10.37,2013-01-08 16:21:00,
2013-01-08 11:26:00,35.8,24.0,30.30,SW,219,6.9,6.9,62,0.00,CLR,,0.00,WeatherDisplay:10.37,2013-01-08 16:26:00,
2013-01-08 11:31:00,36.0,24.2,30.30,WSW,242,4.6,4.6,62,0.00,CLR,,0.00,WeatherDisplay:10.37,2013-01-08 16:31:00,
2013-01-08 11:36:00,36.0,24.2,30.30,SW,229,5.8,5.8,62,0.00,CLR,,0.00,WeatherDisplay:10.37,2013-01-08 16:36:00,
2013-01-08 11:42:00,36.0,24.2,30.30,SW,222,8.1,8.1,62,0.00,CLR,,0.00,WeatherDisplay:10.37,2013-01-08 16:42:00,
2013-01-08 11:47:00,36.1,23.9,30.30,SW,226,6.0,6.0,61,0.00,CLR,,0.00,WeatherDisplay:10.37,2013-01-08 16:47:00,
2013-01-08 11:52:00,36.4,24.6,30.30,SW,229,4.0,4.0,62,0.00,CLR,,0.00,WeatherDisplay:10.37,2013-01-08 16:52:00,
2013-01-08 11:57:00,36.8,25.0,30.30,SW,219,4.6,4.6,62,0.00,CLR,,0.00,WeatherDisplay:10.37,2013-01-08 16:57:00,
2013-01-08 12:02:00,36.7,24.9,30.29,SW,229,5.8,5.8,62,0.00,CLR,,0.00,WeatherDisplay:10.37,2013-01-08 17:02:00,
2013-01-08 12:07:00,36.8,25.0,30.29,WSW,258,9.2,9.2,62,0.00,CLR,,0.00,WeatherDisplay:10.37,2013-01-08 17:07:00,
2013-01-08 12:12:00,37.0,25.2,30.29,SW,219,4.6,4.6,62,0.00,CLR,,0.00,WeatherDisplay:10.37,2013-01-08 17:12:00,
2013-01-08 12:17:00,37.2,25.0,30.29,SE,146,6.9,6.9,61,0.00,CLR,,0.00,WeatherDisplay:10.37,2013-01-08 17:17:00,
2013-01-08 12:22:00,37.4,25.2,30.29,SW,215,6.9,6.9,61,0.00,CLR,,0.00,WeatherDisplay:10.37,2013-01-08 17:22:00,
2013-01-08 12:27:00,37.3,25.1,30.29,SSW,205,4.6,4.6,61,0.00,CLR,,0.00,WeatherDisplay:10.37,2013-01-08 17:27:00,
2013-01-08 12:32:00,37.5,25.3,30.29,SW,236,3.5,3.5,61,0.00,CLR,,0.00,WeatherDisplay:10.37,2013-01-08 17:32:00,
2013-01-08 12:37:00,37.7,25.5,30.29,SW,232,4.6,4.6,61,0.00,CLR,,0.00,WeatherDisplay:10.37,2013-01-08 17:37:00,
2013-01-08 12:42:00,37.8,25.5,30.29,SW,232,3.0,3.5,61,0.00,CLR,,0.00,WeatherDisplay:10.37,2013-01-08 17:42:00,
2013-01-08 12:47:00,37.8,25.9,30.29,West,264,3.5,3.5,62,0.00,CLR,,0.00,WeatherDisplay:10.37,2013-01-08 17:47:00,
2013-01-08 12:52:00,37.8,25.5,30.29,SSW,205,2.3,2.3,61,0.00,CLR,,0.00,WeatherDisplay:10.37,2013-01-08 17:52:00,
2013-01-08 12:57:00,37.7,25.5,30.29,NW,304,3.5,3.5,61,0.00,CLR,,0.00,WeatherDisplay:10.37,2013-01-08 17:57:00,
2013-01-08 13:02:00,37.9,25.6,30.29,SW,219,3.5,3.5,61,0.00,CLR,,0.00,WeatherDisplay:10.37,2013-01-08 18:02:00,
2013-01-08 13:07:00,38.0,25.7,30.29,South,185,3.5,3.5,61,0.00,CLR,,0.00,WeatherDisplay:10.37,2013-01-08 18:07:00,
2013-01-08 13:12:00,38.3,26.0,30.29,SW,235,3.5,3.5,61,0.00,CLR,,0.00,WeatherDisplay:10.37,2013-01-08 18:12:00,
2013-01-08 13:17:00,38.5,25.8,30.29,WSW,252,3.5,3.5,60,0.00,CLR,,0.00,WeatherDisplay:10.37,2013-01-08 18:17:00,
2013-01-08 13:22:00,38.7,26.0,30.29,West,280,3.5,3.5,60,0.00,CLR,,0.00,WeatherDisplay:10.37,2013-01-08 18:22:00,
2013-01-08 13:27:00,38.8,26.5,30.28,SW,222,3.5,3.5,61,0.00,CLR,,0.00,WeatherDisplay:10.37,2013-01-08 18:27:00,
2013-01-08 13:32:00,39.2,26.1,30.28,SW,222,6.9,6.9,59,0.00,CLR,,0.00,WeatherDisplay:10.37,2013-01-08 18:32:00,
2013-01-08 13:37:00,39.3,26.2,30.28,SW,214,4.0,4.0,59,0.00,CLR,,0.00,WeatherDisplay:10.37,2013-01-08 18:37:00,
2013-01-08 13:42:00,39.6,26.4,30.29,SW,231,3.5,3.5,59,0.00,CLR,,0.00,WeatherDisplay:10.37,2013-01-08 18:42:00,
2013-01-08 13:47:00,39.5,25.9,30.29,WSW,240,7.0,7.0,58,0.00,CLR,,0.00,WeatherDisplay:10.37,2013-01-08 18:47:00,
2013-01-08 13:52:00,39.6,26.4,30.29,ESE,113,2.3,2.3,59,0.00,CLR,,0.00,WeatherDisplay:10.37,2013-01-08 18:52:00,
2013-01-08 13:57:00,40.3,26.7,30.29,SW,219,6.0,6.0,58,0.00,CLR,,0.00,WeatherDisplay:10.37,2013-01-08 18:57:00,
2013-01-08 14:02:00,39.6,26.4,30.29,SSW,204,2.3,2.3,59,0.00,CLR,,0.00,WeatherDisplay:10.37,2013-01-08 19:02:00,
2013-01-08 14:07:00,39.6,26.4,30.28,SW,215,5.8,5.8,59,0.00,CLR,,0.00,WeatherDisplay:10.37,2013-01-08 19:07:00,
2013-01-08 14:12:00,39.5,26.8,30.28,SW,231,2.3,2.3,60,0.00,CLR,,0.00,WeatherDisplay:10.37,2013-01-08 19:12:00,
2013-01-08 14:17:00,39.1,26.0,30.28,SSW,210,3.5,3.5,59,0.00,CLR,,0.00,WeatherDisplay:10.37,2013-01-08 19:17:00,
2013-01-08 14:22:00,38.9,26.2,30.29,SW,221,3.5,3.5,60,0.00,CLR,,0.00,WeatherDisplay:10.37,2013-01-08 19:22:00,
2013-01-08 14:27:00,38.9,26.2,30.29,South,191,3.5,3.5,60,0.00,CLR,,0.00,WeatherDisplay:10.37,2013-01-08 19:27:00,
2013-01-08 14:32:00,39.1,26.4,30.29,WSW,255,3.0,3.0,60,0.00,CLR,,0.00,WeatherDisplay:10.37,2013-01-08 19:32:00,
2013-01-08 14:37:00,39.2,26.1,30.30,SSW,207,2.0,2.0,59,0.00,CLR,,0.00,WeatherDisplay:10.37,2013-01-08 19:37:00,
2013-01-08 14:42:00,39.2,26.1,30.30,SSE,155,3.5,3.5,59,0.00,CLR,,0.00,WeatherDisplay:10.37,2013-01-08 19:42:00,
2013-01-08 14:47:00,39.4,26.7,30.30,South,176,3.5,3.5,60,0.00,CLR,,0.00,WeatherDisplay:10.37,2013-01-08 19:47:00,
2013-01-08 14:52:00,39.6,26.8,30.30,West,260,1.2,0.0,60,0.00,CLR,,0.00,WeatherDisplay:10.37,2013-01-08 19:52:00,
2013-01-08 14:57:00,39.5,26.3,30.30,SSW,212,1.2,0.0,59,0.00,CLR,,0.00,WeatherDisplay:10.37,2013-01-08 19:57:00,
2013-01-08 15:02:00,39.3,26.6,30.30,SW,226,2.3,2.3,60,0.00,CLR,,0.00,WeatherDisplay:10.37,2013-01-08 20:02:00,
2013-01-08 15:07:00,39.2,26.5,30.30,SSE,156,1.2,1.2,60,0.00,CLR,,0.00,WeatherDisplay:10.37,2013-01-08 20:07:00,
2013-01-08 15:12:00,39.1,26.0,30.30,WSW,252,1.2,1.2,59,0.00,CLR,,0.00,WeatherDisplay:10.37,2013-01-08 20:12:00,
2013-01-08 15:17:00,39.0,26.3,30.30,SSW,210,2.0,2.0,60,0.00,CLR,,0.00,WeatherDisplay:10.37,2013-01-08 20:17:00,
2013-01-08 15:22:00,38.9,26.2,30.31,SW,222,1.0,1.0,60,0.00,CLR,,0.00,WeatherDisplay:10.37,2013-01-08 20:22:00,
2013-01-08 15:27:00,38.7,26.0,30.31,West,271,1.2,1.2,60,0.00,CLR,,0.00,WeatherDisplay:10.37,2013-01-08 20:27:00,
2013-01-08 15:32:00,38.6,26.3,30.31,West,264,0.0,0.0,61,0.00,CLR,,0.00,WeatherDisplay:10.37,2013-01-08 20:32:00,
2013-01-08 15:37:00,38.3,26.0,30.31,West,264,0.0,0.0,61,0.00,CLR,,0.00,WeatherDisplay:10.37,2013-01-08 20:37:00,
2013-01-08 15:42:00,38.0,26.1,30.31,West,264,0.0,0.0,62,0.00,CLR,,0.00,WeatherDisplay:10.37,2013-01-08 20:42:00,
2013-01-08 15:47:00,37.7,26.2,30.31,West,263,1.2,0.0,63,0.00,CLR,,0.00,WeatherDisplay:10.37,2013-01-08 20:47:00,
2013-01-08 15:52:00,37.4,25.9,30.31,South,187,1.2,1.2,63,0.00,CLR,,0.00,WeatherDisplay:10.37,2013-01-08 20:52:00,
2013-01-08 15:57:00,37.1,26.0,30.32,South,187,0.0,0.0,64,0.00,CLR,,0.00,WeatherDisplay:10.37,2013-01-08 20:57:00,
2013-01-08 16:02:00,36.3,26.0,30.32,South,187,0.0,0.0,66,0.00,CLR,,0.00,WeatherDisplay:10.37,2013-01-08 21:02:00,
2013-01-08 16:07:00,36.1,26.2,30.32,South,187,0.0,0.0,67,0.00,CLR,,0.00,WeatherDisplay:10.37,2013-01-08 21:07:00,
2013-01-08 16:12:00,35.9,26.0,30.32,South,187,0.0,0.0,67,0.00,CLR,,0.00,WeatherDisplay:10.37,2013-01-08 21:12:00,
2013-01-08 16:17:00,35.6,26.1,30.32,South,187,0.0,0.0,68,0.00,CLR,,0.00,WeatherDisplay:10.37,2013-01-08 21:17:00,
2013-01-08 16:22:00,35.3,26.1,30.32,South,187,0.0,0.0,69,0.00,CLR,,0.00,WeatherDisplay:10.37,2013-01-08 21:22:00,
2013-01-08 16:27:00,35.1,26.3,30.32,South,187,0.0,0.0,70,0.00,CLR,,0.00,WeatherDisplay:10.37,2013-01-08 21:27:00,
2013-01-08 16:32:00,34.5,26.1,30.32,South,187,0.0,0.0,71,0.00,CLR,,0.00,WeatherDisplay:10.37,2013-01-08 21:32:00,
2013-01-08 16:37:00,33.9,25.8,30.32,South,187,0.0,0.0,72,0.00,CLR,,0.00,WeatherDisplay:10.37,2013-01-08 21:37:00,
2013-01-08 16:42:00,33.7,25.6,30.33,South,187,0.0,0.0,72,0.00,CLR,,0.00,WeatherDisplay:10.37,2013-01-08 21:42:00,
2013-01-08 16:47:00,33.3,25.6,30.33,South,187,0.0,0.0,73,0.00,CLR,,0.00,WeatherDisplay:10.37,2013-01-08 21:47:00,
2013-01-08 16:52:00,32.8,25.4,30.33,South,187,0.0,0.0,74,0.00,CLR,,0.00,WeatherDisplay:10.37,2013-01-08 21:52:00,
2013-01-08 16:57:00,32.4,25.4,30.33,South,187,0.0,0.0,75,0.00,CLR,,0.00,WeatherDisplay:10.37,2013-01-08 21:57:00,
2013-01-08 17:02:00,32.1,25.4,30.33,South,187,0.0,0.0,76,0.00,CLR,,0.00,WeatherDisplay:10.37,2013-01-08 22:02:00,
2013-01-08 17:07:00,32.1,25.7,30.33,South,187,0.0,0.0,77,0.00,CLR,,0.00,WeatherDisplay:10.37,2013-01-08 22:07:00,
2013-01-08 17:12:00,32.1,26.3,30.33,South,187,0.0,0.0,79,0.00,CLR,,0.00,WeatherDisplay:10.37,2013-01-08 22:12:00,
2013-01-08 17:17:00,32.1,26.3,30.33,South,186,0.0,0.0,79,0.00,CLR,,0.00,WeatherDisplay:10.37,2013-01-08 22:17:00,
2013-01-08 17:22:00,32.1,26.0,30.33,South,187,0.0,0.0,78,0.00,CLR,,0.00,WeatherDisplay:10.37,2013-01-08 22:22:00,
2013-01-08 17:27:00,32.1,26.3,30.33,South,187,0.0,0.0,79,0.00,CLR,,0.00,WeatherDisplay:10.37,2013-01-08 22:27:00,
2013-01-08 17:32:00,32.1,26.6,30.33,South,187,0.0,0.0,80,0.00,CLR,,0.00,WeatherDisplay:10.37,2013-01-08 22:32:00,
2013-01-08 17:37:00,32.1,26.9,30.33,South,187,0.0,0.0,81,0.00,CLR,,0.00,WeatherDisplay:10.37,2013-01-08 22:37:00,
2013-01-08 17:42:00,32.1,27.2,30.33,South,187,0.0,0.0,82,0.00,CLR,,0.00,WeatherDisplay:10.37,2013-01-08 22:42:00,
2013-01-08 17:47:00,32.1,27.5,30.34,South,187,0.0,0.0,83,0.00,CLR,,0.00,WeatherDisplay:10.37,2013-01-08 22:47:00,
2013-01-08 17:52:00,32.1,27.8,30.33,South,187,0.0,0.0,84,0.00,CLR,,0.00,WeatherDisplay:10.37,2013-01-08 22:52:00,
2013-01-08 17:57:00,32.1,27.8,30.34,South,187,0.0,0.0,84,0.00,CLR,,0.00,WeatherDisplay:10.37,2013-01-08 22:57:00,
2013-01-08 18:02:00,32.1,27.5,30.33,South,187,0.0,0.0,83,0.00,CLR,,0.00,WeatherDisplay:10.37,2013-01-08 23:02:00,
2013-01-08 18:07:00,32.1,27.2,30.33,South,187,0.0,0.0,82,0.00,CLR,,0.00,WeatherDisplay:10.37,2013-01-08 23:07:00,
2013-01-08 18:12:00,32.1,27.8,30.34,South,187,0.0,0.0,84,0.00,CLR,,0.00,WeatherDisplay:10.37,2013-01-08 23:12:00,
2013-01-08 18:17:00,32.1,27.8,30.34,SE,132,0.0,0.0,84,0.00,CLR,,0.00,WeatherDisplay:10.37,2013-01-08 23:17:00,
2013-01-08 18:22:00,32.1,27.2,30.34,SE,133,0.0,0.0,82,0.00,CLR,,0.00,WeatherDisplay:10.37,2013-01-08 23:22:00,
2013-01-08 18:27:00,32.1,27.2,30.34,SE,133,0.0,0.0,82,0.00,CLR,,0.00,WeatherDisplay:10.37,2013-01-08 23:27:00,
2013-01-08 18:32:00,32.1,27.2,30.34,SE,132,0.0,0.0,82,0.00,CLR,,0.00,WeatherDisplay:10.37,2013-01-08 23:32:00,
2013-01-08 18:37:00,32.1,27.5,30.34,SE,133,0.0,0.0,83,0.00,CLR,,0.00,WeatherDisplay:10.37,2013-01-08 23:37:00,
2013-01-08 18:42:00,32.1,27.5,30.34,SE,133,0.0,0.0,83,0.00,CLR,,0.00,WeatherDisplay:10.37,2013-01-08 23:42:00,
2013-01-08 18:47:00,32.1,27.5,30.34,SE,132,0.0,0.0,83,0.00,CLR,,0.00,WeatherDisplay:10.37,2013-01-08 23:47:00,
2013-01-08 18:52:00,32.1,27.8,30.34,SE,133,0.0,0.0,84,0.00,CLR,,0.00,WeatherDisplay:10.37,2013-01-08 23:52:00,
2013-01-08 18:57:00,32.1,27.8,30.34,SE,133,0.0,0.0,84,0.00,CLR,,0.00,WeatherDisplay:10.37,2013-01-08 23:57:00,
2013-01-08 19:02:00,32.1,27.8,30.34,SE,133,0.0,0.0,84,0.00,CLR,,0.00,WeatherDisplay:10.37,2013-01-09 00:02:00,
2013-01-08 19:07:00,32.1,28.1,30.34,SE,133,0.0,0.0,85,0.00,CLR,,0.00,WeatherDisplay:10.37,2013-01-09 00:07:00,
2013-01-08 19:12:00,32.1,28.1,30.34,SE,133,0.0,0.0,85,0.00,CLR,,0.00,WeatherDisplay:10.37,2013-01-09 00:12:00,
2013-01-08 19:17:00,32.1,28.1,30.34,SE,133,0.0,0.0,85,0.00,CLR,,0.00,WeatherDisplay:10.37,2013-01-09 00:17:00,
2013-01-08 19:22:00,32.1,28.7,30.34,SE,133,0.0,0.0,87,0.00,CLR,,0.00,WeatherDisplay:10.37,2013-01-09 00:22:00,
2013-01-08 19:27:00,32.1,28.4,30.34,SE,132,0.0,0.0,86,0.00,CLR,,0.00,WeatherDisplay:10.37,2013-01-09 00:27:00,
2013-01-08 19:32:00,32.1,28.4,30.34,SE,133,1.2,0.0,86,0.00,CLR,,0.00,WeatherDisplay:10.37,2013-01-09 00:32:00,
2013-01-08 19:37:00,32.1,28.4,30.34,SE,133,0.0,0.0,86,0.00,CLR,,0.00,WeatherDisplay:10.37,2013-01-09 00:37:00,
2013-01-08 19:45:00,32.1,28.1,30.34,SE,132,0.0,0.0,85,0.00,CLR,,0.00,WeatherDisplay:10.37,2013-01-09 00:45:00,
2013-01-08 19:50:00,32.1,28.1,30.34,SE,133,0.0,0.0,85,0.00,CLR,,0.00,WeatherDisplay:10.37,2013-01-09 00:50:00,
2013-01-08 19:55:00,32.1,28.4,30.34,SE,133,0.0,0.0,86,0.00,CLR,,0.00,WeatherDisplay:10.37,2013-01-09 00:55:00,
2013-01-08 20:00:00,32.1,28.7,30.34,SE,133,0.0,0.0,87,0.00,CLR,,0.00,WeatherDisplay:10.37,2013-01-09 01:00:00,
2013-01-08 20:05:00,32.1,28.7,30.33,SE,133,0.0,0.0,87,0.00,CLR,,0.00,WeatherDisplay:10.37,2013-01-09 01:05:00,
2013-01-08 20:10:00,32.1,29.0,30.34,SE,133,0.0,0.0,88,0.00,CLR,,0.00,WeatherDisplay:10.37,2013-01-09 01:10:00,
2013-01-08 20:15:00,32.1,28.7,30.34,SE,132,0.0,0.0,87,0.00,CLR,,0.00,WeatherDisplay:10.37,2013-01-09 01:15:00,
2013-01-08 20:20:00,32.1,28.7,30.34,SE,133,0.0,0.0,87,0.00,CLR,,0.00,WeatherDisplay:10.37,2013-01-09 01:20:00,
2013-01-08 20:25:00,32.1,28.7,30.34,SE,133,0.0,0.0,87,0.00,CLR,,0.00,WeatherDisplay:10.37,2013-01-09 01:25:00,
2013-01-08 20:30:00,32.1,28.7,30.34,SE,133,0.0,0.0,87,0.00,CLR,,0.00,WeatherDisplay:10.37,2013-01-09 01:30:00,
2013-01-08 20:35:00,32.1,28.7,30.34,SE,140,0.0,0.3,87,0.00,CLR,,0.00,WeatherDisplay:10.37,2013-01-09 01:35:00,
2013-01-08 20:40:00,32.1,28.4,30.34,SSE,162,0.0,0.0,86,0.00,CLR,,0.00,WeatherDisplay:10.37,2013-01-09 01:40:00,
2013-01-08 20:45:00,32.1,28.1,30.33,SSE,163,0.0,0.0,85,0.00,CLR,,0.00,WeatherDisplay:10.37,2013-01-09 01:45:00,
2013-01-08 20:50:00,32.1,28.4,30.33,SSE,163,0.0,0.0,86,0.00,CLR,,0.00,WeatherDisplay:10.37,2013-01-09 01:50:00,
2013-01-08 20:55:00,32.1,28.4,30.33,SSE,163,0.0,0.0,86,0.00,CLR,,0.00,WeatherDisplay:10.37,2013-01-09 01:55:00,
2013-01-08 21:00:00,32.1,28.4,30.33,SSE,164,0.0,0.0,86,0.00,CLR,,0.00,WeatherDisplay:10.37,2013-01-09 02:00:00,
2013-01-08 21:05:00,32.1,28.7,30.33,SSE,163,0.0,0.0,87,0.00,CLR,,0.00,WeatherDisplay:10.37,2013-01-09 02:05:00,
2013-01-08 21:10:00,32.1,29.0,30.32,SSE,164,0.0,0.0,88,0.00,CLR,,0.00,WeatherDisplay:10.37,2013-01-09 02:10:00,
2013-01-08 21:15:00,32.1,29.0,30.32,SSE,163,0.0,0.0,88,0.00,CLR,,0.00,WeatherDisplay:10.37,2013-01-09 02:15:00,